createdAt,value
2019-03-23T00:00:40.127Z,92.75
2019-03-23T00:03:08.640Z,100.30
2019-03-23T00:05:37.058Z,96.15
2019-03-23T00:08:05.512Z,97.45
2019-03-23T00:10:34.394Z,100.90
2019-03-23T00:13:04.402Z,101.05
2019-03-23T00:15:32.973Z,101.27
2019-03-23T00:18:01.366Z,101.50
2019-03-23T00:20:29.995Z,108.78
2019-03-23T00:22:59.452Z,108.25
2019-03-23T00:25:27.857Z,105.80
2019-03-23T00:27:56.278Z,104.43
2019-03-23T00:30:24.682Z,101.75
2019-03-23T00:32:53.075Z,102.47
2019-03-23T00:35:21.472Z,96.12
2019-03-23T00:37:49.966Z,101.40
2019-03-23T00:40:18.348Z,94.73
2019-03-23T00:42:46.773Z,99.52
2019-03-23T00:45:15.239Z,102.62
2019-03-23T00:47:43.749Z,100.90
2019-03-23T00:50:12.435Z,101.10
2019-03-23T00:52:44.943Z,96.53
2019-03-23T00:55:15.405Z,96.60
2019-03-23T00:57:43.820Z,97.25
2019-03-23T01:00:13.365Z,96.35
2019-03-23T01:02:42.191Z,97.10
2019-03-23T01:05:11.010Z,92.22
2019-03-23T01:07:40.420Z,93.55
2019-03-23T01:10:11.743Z,89.62
2019-03-23T01:12:40.440Z,88.90
2019-03-23T01:15:10.914Z,89.13
2019-03-23T01:17:39.325Z,87.85
2019-03-23T01:20:10.368Z,91.05
2019-03-23T01:22:41.198Z,97.75
2019-03-23T01:25:11.149Z,102.30
2019-03-23T01:27:39.507Z,100.35
2019-03-23T01:30:10.808Z,99.60
2019-03-23T01:32:39.192Z,97.95
2019-03-23T01:35:09.376Z,90.92
2019-03-23T01:37:37.773Z,102.22
2019-03-23T01:40:07.716Z,104.03
2019-03-23T01:42:36.419Z,104.92
2019-03-23T01:45:07.959Z,103.25
2019-03-23T01:47:36.369Z,105.33
2019-03-23T01:50:07.954Z,99.42
2019-03-23T01:52:36.479Z,104.17
2019-03-23T01:55:06.958Z,102.38
2019-03-23T01:57:37.840Z,101.67
2019-03-23T02:00:11.167Z,100.02
2019-03-23T02:02:40.015Z,104.78
2019-03-23T02:05:08.940Z,97.12
2019-03-23T02:07:37.366Z,86.57
2019-03-23T02:10:08.909Z,86.25
2019-03-23T02:12:37.388Z,87.57
2019-03-23T02:15:08.490Z,88.27
2019-03-23T02:17:36.880Z,92.72
2019-03-23T02:20:13.181Z,95.45
2019-03-23T02:22:42.653Z,95.85
2019-03-23T02:25:13.245Z,99.05
2019-03-23T02:27:41.820Z,114.15
2019-03-23T02:30:14.068Z,134.65
2019-03-23T02:32:42.498Z,169.00
2019-03-23T02:35:11.145Z,178.02
2019-03-23T02:37:39.555Z,183.52
2019-03-23T02:40:10.148Z,176.18
2019-03-23T02:42:38.529Z,177.68
2019-03-23T02:45:10.287Z,175.35
2019-03-23T02:47:42.422Z,178.83
2019-03-23T02:50:11.488Z,189.45
2019-03-23T02:52:39.902Z,193.28
2019-03-23T02:55:11.737Z,202.53
2019-03-23T02:57:40.346Z,192.03
2019-03-23T03:00:14.298Z,180.85
2019-03-23T03:02:42.700Z,176.70
2019-03-23T03:05:11.956Z,180.10
2019-03-23T03:07:43.324Z,174.57
2019-03-23T03:10:12.379Z,166.95
2019-03-23T03:12:40.803Z,169.13
2019-03-23T03:15:10.173Z,164.13
2019-03-23T03:17:38.656Z,158.03
2019-03-23T03:20:10.117Z,157.67
2019-03-23T03:22:42.311Z,154.20
2019-03-23T03:25:10.796Z,149.55
2019-03-23T03:27:39.223Z,147.30
2019-03-23T03:30:11.575Z,139.93
2019-03-23T03:32:40.026Z,138.03
2019-03-23T03:35:08.869Z,137.03
2019-03-23T03:37:37.297Z,134.52
2019-03-23T03:40:08.018Z,127.30
2019-03-23T03:42:36.425Z,126.27
2019-03-23T03:45:10.011Z,123.33
2019-03-23T03:47:41.250Z,120.17
2019-03-23T03:50:09.862Z,117.03
2019-03-23T03:52:38.789Z,116.45
2019-03-23T03:55:08.690Z,108.65
2019-03-23T03:57:37.096Z,99.42
2019-03-23T04:00:09.836Z,90.00
2019-03-23T04:02:38.645Z,90.17
2019-03-23T04:05:07.901Z,88.47
2019-03-23T04:07:36.341Z,85.92
2019-03-23T04:10:06.787Z,84.58
2019-03-23T04:12:35.223Z,82.47
2019-03-23T04:15:04.988Z,80.07
2019-03-23T04:17:33.391Z,78.80
2019-03-23T04:20:01.814Z,79.75
2019-03-23T04:22:30.212Z,78.15
2019-03-23T04:25:02.446Z,74.73
2019-03-23T04:27:30.827Z,73.75
2019-03-23T04:29:59.273Z,74.55
2019-03-23T04:32:27.735Z,77.60
2019-03-23T04:34:56.174Z,78.67
2019-03-23T04:37:24.796Z,80.53
2019-03-23T04:39:53.220Z,78.92
2019-03-23T04:42:21.648Z,76.20
2019-03-23T04:44:50.049Z,76.17
2019-03-23T04:47:18.526Z,80.38
2019-03-23T04:49:46.910Z,78.57
2019-03-23T04:52:16.862Z,75.15
2019-03-23T04:54:45.283Z,79.30
2019-03-23T04:57:13.670Z,76.80
2019-03-23T04:59:42.092Z,77.97
2019-03-23T05:02:10.507Z,79.87
2019-03-23T05:04:38.898Z,77.93
2019-03-23T05:07:07.303Z,75.78
2019-03-23T05:09:35.716Z,74.97
2019-03-23T05:12:04.276Z,77.30
2019-03-23T05:14:35.211Z,76.23
2019-03-23T05:17:03.602Z,76.60
2019-03-23T05:19:32.036Z,79.17
2019-03-23T05:22:00.427Z,76.25
2019-03-23T05:24:28.855Z,79.83
2019-03-23T05:26:57.278Z,77.92
2019-03-23T05:29:25.692Z,75.60
2019-03-23T05:31:54.112Z,76.20
2019-03-23T05:34:22.818Z,81.05
2019-03-23T05:36:51.256Z,77.72
2019-03-23T05:39:19.700Z,70.92
2019-03-23T05:41:48.487Z,70.60
2019-03-23T05:44:16.917Z,69.55
2019-03-23T05:46:45.342Z,66.28
2019-03-23T05:49:13.737Z,68.12
2019-03-23T05:51:42.362Z,66.20
2019-03-23T05:54:10.801Z,67.22
2019-03-23T05:56:39.210Z,71.72
2019-03-23T05:59:07.695Z,70.12
2019-03-23T06:01:36.114Z,70.65
2019-03-23T06:04:04.683Z,74.45
2019-03-23T06:06:33.080Z,73.87
2019-03-23T06:09:01.547Z,73.10
2019-03-23T06:11:29.942Z,73.28
2019-03-23T06:13:58.340Z,71.33
2019-03-23T06:16:28.353Z,68.50
2019-03-23T06:18:56.758Z,67.67
2019-03-23T06:21:25.199Z,64.20
2019-03-23T06:23:53.620Z,67.92
2019-03-23T06:26:22.041Z,66.45
2019-03-23T06:28:50.433Z,71.17
2019-03-23T06:31:18.887Z,65.60
2019-03-23T06:33:47.287Z,68.95
2019-03-23T06:36:15.721Z,69.22
2019-03-23T06:38:44.988Z,68.22
2019-03-23T06:41:13.394Z,73.22
2019-03-23T06:43:41.809Z,75.00
2019-03-23T06:46:10.222Z,68.87
2019-03-23T06:48:38.640Z,67.00
2019-03-23T06:51:07.056Z,63.15
2019-03-23T06:53:35.458Z,65.03
2019-03-23T06:56:03.923Z,65.13
2019-03-23T06:58:32.346Z,66.05
2019-03-23T07:01:03.000Z,62.90
2019-03-23T07:03:31.373Z,62.33
2019-03-23T07:06:01.812Z,65.13
2019-03-23T07:08:32.133Z,63.73
2019-03-23T07:11:02.493Z,62.67
2019-03-23T07:13:30.918Z,64.47
2019-03-23T07:15:59.314Z,62.13
2019-03-23T07:18:27.716Z,62.43
2019-03-23T07:20:56.111Z,66.17
2019-03-23T07:23:24.529Z,61.83
2019-03-23T07:25:52.924Z,64.72
2019-03-23T07:28:21.362Z,62.27
2019-03-23T07:30:49.771Z,60.43
2019-03-23T07:33:18.986Z,62.62
2019-03-23T07:35:50.092Z,61.30
2019-03-23T07:38:18.465Z,62.08
2019-03-23T07:40:48.027Z,58.33
2019-03-23T07:43:16.436Z,59.63
2019-03-23T07:46:28.234Z,62.33
2019-03-23T07:48:56.654Z,62.30
2019-03-23T07:51:25.052Z,64.77
2019-03-23T07:53:53.516Z,60.90
2019-03-23T07:56:23.387Z,63.63
2019-03-23T07:58:51.787Z,60.65
2019-03-23T08:01:20.172Z,60.95
2019-03-23T08:03:50.590Z,59.70
2019-03-23T08:06:18.711Z,59.25
2019-03-23T08:08:47.105Z,56.30
2019-03-23T08:11:15.519Z,55.90
2019-03-23T08:13:43.925Z,56.45
2019-03-23T08:16:12.329Z,57.93
2019-03-23T08:18:43.141Z,55.70
2019-03-23T08:21:11.538Z,55.30
2019-03-23T08:23:41.564Z,54.20
2019-03-23T08:26:09.932Z,55.38
2019-03-23T08:28:38.352Z,54.08
2019-03-23T08:31:09.116Z,55.33
2019-03-23T08:33:37.811Z,56.75
2019-03-23T08:36:06.211Z,55.55
2019-03-23T08:38:34.639Z,55.50
2019-03-23T08:41:03.052Z,52.05
2019-03-23T08:43:31.460Z,55.78
2019-03-23T08:46:46.378Z,53.73
2019-03-23T08:49:14.921Z,53.05
2019-03-23T08:51:43.325Z,54.93
2019-03-23T08:54:16.432Z,51.02
2019-03-23T08:56:44.519Z,49.23
2019-03-23T09:00:07.495Z,51.18
2019-03-23T09:02:36.053Z,52.67
2019-03-23T09:06:06.968Z,53.20
2019-03-23T09:08:35.383Z,51.15
2019-03-23T09:11:03.811Z,51.95
2019-03-23T09:15:16.827Z,57.73
2019-03-23T09:19:05.991Z,55.90
2019-03-23T09:21:34.423Z,54.83
2019-03-23T09:24:58.703Z,54.50
2019-03-23T09:27:35.983Z,55.28
2019-03-23T09:30:03.142Z,58.20
2019-03-23T09:33:47.053Z,54.00
2019-03-23T09:36:15.465Z,54.73
2019-03-23T09:40:10.066Z,53.02
2019-03-23T09:44:25.167Z,53.28
2019-03-23T09:48:44.094Z,54.20
2019-03-23T09:52:52.006Z,53.40
2019-03-23T09:56:51.623Z,50.33
2019-03-23T10:03:34.048Z,52.90
2019-03-23T10:06:02.426Z,53.50
2019-03-23T10:08:30.996Z,51.88
2019-03-23T10:11:03.236Z,50.83
2019-03-23T10:13:31.668Z,53.23
2019-03-23T10:16:00.162Z,50.95
2019-03-23T10:18:28.550Z,51.90
2019-03-23T10:21:00.538Z,51.35
2019-03-23T10:23:28.933Z,51.30
2019-03-23T10:26:00.485Z,53.48
2019-03-23T10:28:41.794Z,54.13
2019-03-23T10:31:34.046Z,52.90
2019-03-23T10:34:04.513Z,54.05
2019-03-23T10:36:37.309Z,54.10
2019-03-23T10:39:06.912Z,52.48
2019-03-23T10:41:36.402Z,53.00
2019-03-23T10:45:26.370Z,52.67
2019-03-23T10:49:51.522Z,52.43
2019-03-23T10:52:26.534Z,52.55
2019-03-23T10:54:54.982Z,52.67
2019-03-23T10:57:23.523Z,54.77
2019-03-23T10:59:51.949Z,53.98
2019-03-23T11:02:20.343Z,52.17
2019-03-23T11:04:48.831Z,56.30
2019-03-23T11:07:56.160Z,56.77
2019-03-23T11:12:22.292Z,51.88
2019-03-23T11:14:50.698Z,53.20
2019-03-23T11:18:54.546Z,51.45
2019-03-23T11:21:22.949Z,54.20
2019-03-23T11:24:03.572Z,53.50
2019-03-23T11:28:22.350Z,51.65
2019-03-23T11:30:50.828Z,47.95
2019-03-23T11:34:40.725Z,49.98
2019-03-23T11:37:13.920Z,46.25
2019-03-23T11:39:42.353Z,48.10
2019-03-23T11:42:11.074Z,49.53
2019-03-23T11:45:26.702Z,51.53
2019-03-23T11:47:55.193Z,50.03
2019-03-23T11:50:26.109Z,51.18
2019-03-23T11:55:03.238Z,47.85
2019-03-23T11:57:34.185Z,49.53
2019-03-23T12:00:18.143Z,50.63
2019-03-23T12:02:49.033Z,49.67
2019-03-23T12:05:32.514Z,51.80
2019-03-23T12:08:00.934Z,50.48
2019-03-23T12:10:32.866Z,49.77
2019-03-23T12:13:01.309Z,53.45
2019-03-23T12:15:29.910Z,54.38
2019-03-23T12:18:04.683Z,52.83
2019-03-23T12:20:30.988Z,55.58
2019-03-23T12:23:14.711Z,53.15
2019-03-23T12:25:43.162Z,50.73
2019-03-23T12:28:20.300Z,53.33
2019-03-23T12:31:14.983Z,49.25
2019-03-23T12:33:43.450Z,49.35
2019-03-23T12:36:14.303Z,46.63
2019-03-23T12:38:51.755Z,49.45
2019-03-23T12:41:23.411Z,46.10
2019-03-23T12:43:52.850Z,43.83
2019-03-23T12:46:21.263Z,43.90
2019-03-23T12:48:53.423Z,43.05
2019-03-23T12:51:21.863Z,42.58
2019-03-23T12:53:50.526Z,38.90
2019-03-23T12:56:19.049Z,39.78
2019-03-23T12:58:49.733Z,37.98
2019-03-23T13:01:18.613Z,38.50
2019-03-23T13:03:47.181Z,39.55
2019-03-23T13:06:15.641Z,36.90
2019-03-23T13:08:44.085Z,38.23
2019-03-23T13:11:22.776Z,36.37
2019-03-23T13:13:43.562Z,33.80
2019-03-23T13:16:12.154Z,31.75
2019-03-23T13:18:40.549Z,30.60
2019-03-23T13:21:12.107Z,30.00
2019-03-23T13:23:43.230Z,29.52
2019-03-23T13:26:14.954Z,27.50
2019-03-23T13:28:51.329Z,28.20
2019-03-23T13:31:19.739Z,25.85
2019-03-23T13:33:48.130Z,25.32
2019-03-23T13:36:51.451Z,22.90
2019-03-23T13:38:59.761Z,23.73
2019-03-23T13:41:28.163Z,23.40
2019-03-23T13:43:59.232Z,25.27
2019-03-23T13:46:27.675Z,23.00
2019-03-23T13:48:58.709Z,21.73
2019-03-23T13:51:31.923Z,19.52
2019-03-23T13:54:04.501Z,19.87
2019-03-23T13:56:33.014Z,13.93
2019-03-23T13:59:05.261Z,14.03
2019-03-23T14:01:33.635Z,11.57
2019-03-23T14:04:06.529Z,8.80
2019-03-23T14:06:34.924Z,8.00
2019-03-23T14:09:06.349Z,7.72
2019-03-23T14:11:34.763Z,7.53
2019-03-23T14:14:09.234Z,6.15
2019-03-23T14:17:26.836Z,6.80
2019-03-23T14:19:55.262Z,5.70
2019-03-23T14:22:27.553Z,4.37
2019-03-23T14:25:00.433Z,4.00
2019-03-23T14:27:28.853Z,4.97
2019-03-23T14:29:57.239Z,4.53
2019-03-23T14:32:25.614Z,4.40
2019-03-23T14:34:54.024Z,5.00
2019-03-23T14:37:22.413Z,3.33
2019-03-23T14:41:33.872Z,4.03
2019-03-23T14:44:02.255Z,2.77
2019-03-23T14:46:30.645Z,3.90
2019-03-23T14:49:53.420Z,3.00
2019-03-23T14:52:31.447Z,1.87
2019-03-23T14:55:33.219Z,2.15
2019-03-23T14:57:45.061Z,2.33
2019-03-23T15:00:20.113Z,1.97
2019-03-23T15:02:48.530Z,2.75
2019-03-23T15:05:27.735Z,2.83
2019-03-23T15:07:56.051Z,1.70
2019-03-23T15:11:08.999Z,2.53
2019-03-23T15:13:39.388Z,2.30
2019-03-23T15:16:07.802Z,2.02
2019-03-23T15:18:36.189Z,2.00
2019-03-23T15:21:04.683Z,1.83
2019-03-23T15:23:33.065Z,2.22
2019-03-23T15:26:15.348Z,2.30
2019-03-23T15:28:45.404Z,2.15
2019-03-23T15:31:26.452Z,2.02
2019-03-23T15:33:54.863Z,2.17
2019-03-23T15:36:23.254Z,2.55
2019-03-23T15:38:51.665Z,3.00
2019-03-23T15:41:20.083Z,2.60
2019-03-23T15:43:51.520Z,1.90
2019-03-23T15:46:27.754Z,2.73
2019-03-23T15:48:56.197Z,2.92
2019-03-23T15:52:21.612Z,2.77
2019-03-23T15:54:50.017Z,3.58
2019-03-23T15:57:19.627Z,2.90
2019-03-23T16:01:01.707Z,2.58
2019-03-23T16:03:30.207Z,3.50
2019-03-23T16:06:23.778Z,4.30
2019-03-23T16:08:52.161Z,3.50
2019-03-23T16:11:23.080Z,2.37
2019-03-23T16:13:53.224Z,2.62
2019-03-23T16:16:21.739Z,3.77
2019-03-23T16:18:53.146Z,3.02
2019-03-23T16:21:21.611Z,2.80
2019-03-23T16:23:56.690Z,3.85
2019-03-23T16:26:25.107Z,3.42
2019-03-23T16:28:53.515Z,3.90
2019-03-23T16:31:21.918Z,3.40
2019-03-23T16:33:50.313Z,3.80
2019-03-23T16:36:18.758Z,4.58
2019-03-23T16:39:04.084Z,3.70
2019-03-23T16:41:35.214Z,2.80
2019-03-23T16:44:03.602Z,2.85
2019-03-23T16:46:36.227Z,3.25
2019-03-23T16:49:05.231Z,3.27
2019-03-23T16:51:33.618Z,4.00
2019-03-23T16:54:52.568Z,3.77
2019-03-23T16:57:23.389Z,4.40
2019-03-23T16:59:51.800Z,3.15
2019-03-23T17:02:20.194Z,4.03
2019-03-23T17:07:29.308Z,3.05
2019-03-23T17:09:57.722Z,3.15
2019-03-23T17:12:26.101Z,3.00
2019-03-23T17:14:54.527Z,3.00
2019-03-23T17:17:22.932Z,2.52
2019-03-23T17:19:57.050Z,3.08
2019-03-23T17:22:27.064Z,2.62
2019-03-23T17:24:55.469Z,2.37
2019-03-23T17:27:30.389Z,2.77
2019-03-23T17:30:01.240Z,2.42
2019-03-23T17:32:51.520Z,2.55
2019-03-23T17:35:22.743Z,2.40
2019-03-23T17:37:51.129Z,3.17
2019-03-23T17:40:20.595Z,3.02
2019-03-23T17:42:49.551Z,3.35
2019-03-23T17:45:18.535Z,3.10
2019-03-23T17:47:46.958Z,3.00
2019-03-23T17:50:15.839Z,2.60
2019-03-23T17:52:44.418Z,2.52
2019-03-23T17:55:15.333Z,3.60
2019-03-23T17:57:46.830Z,3.15
2019-03-23T18:00:16.104Z,2.60
2019-03-23T18:02:44.513Z,2.12
2019-03-23T18:05:18.041Z,3.02
2019-03-23T18:07:46.448Z,2.52
2019-03-23T18:10:15.051Z,2.22
2019-03-23T18:12:43.468Z,2.20
2019-03-23T18:15:15.650Z,2.27
2019-03-23T18:17:58.506Z,2.52
2019-03-23T18:20:26.893Z,2.85
2019-03-23T18:22:57.950Z,2.40
2019-03-23T18:25:26.337Z,2.83
2019-03-23T18:27:54.797Z,2.83
2019-03-23T18:30:40.781Z,3.15
2019-03-23T18:33:09.543Z,3.17
2019-03-23T18:35:38.023Z,3.98
2019-03-23T18:38:06.417Z,3.37
2019-03-23T18:40:37.575Z,3.08
2019-03-23T18:43:06.816Z,3.17
2019-03-23T18:45:39.414Z,4.40
2019-03-23T18:48:07.887Z,4.80
2019-03-23T18:50:36.254Z,3.47
2019-03-23T18:53:05.051Z,3.85
2019-03-23T18:55:33.467Z,3.22
2019-03-23T18:58:02.113Z,3.33
2019-03-23T19:00:36.171Z,4.58
2019-03-23T19:03:05.103Z,4.53
2019-03-23T19:05:37.386Z,4.03
2019-03-23T19:08:11.799Z,3.85
2019-03-23T19:10:39.880Z,4.17
2019-03-23T19:13:08.330Z,4.15
2019-03-23T19:15:38.806Z,5.58
2019-03-23T19:18:09.986Z,6.67
2019-03-23T19:20:42.261Z,4.30
2019-03-23T19:23:13.329Z,4.75
2019-03-23T19:25:41.738Z,5.67
2019-03-23T19:28:10.436Z,5.10
2019-03-23T19:30:46.018Z,8.55
2019-03-23T19:33:14.462Z,9.33
2019-03-23T19:35:47.809Z,5.80
2019-03-23T19:38:18.207Z,7.92
2019-03-23T19:40:46.746Z,10.23
2019-03-23T19:43:15.603Z,11.08
2019-03-23T19:45:47.904Z,6.83
2019-03-23T19:48:16.448Z,6.92
2019-03-23T19:50:44.837Z,4.97
2019-03-23T19:53:14.185Z,5.50
2019-03-23T19:55:43.545Z,5.08
2019-03-23T19:58:11.974Z,6.35
2019-03-23T20:00:40.404Z,7.35
2019-03-23T20:03:08.850Z,5.97
2019-03-23T20:05:40.924Z,5.72
2019-03-23T20:08:09.432Z,7.83
2019-03-23T20:10:41.276Z,7.67
2019-03-23T20:13:09.738Z,6.65
2019-03-23T20:15:39.238Z,7.47
2019-03-23T20:18:10.149Z,7.75
2019-03-23T20:20:38.619Z,7.05
2019-03-23T20:23:07.044Z,9.05
2019-03-23T20:25:35.416Z,8.95
2019-03-23T20:28:03.813Z,8.33
2019-03-23T20:30:32.231Z,8.10
2019-03-23T20:33:00.758Z,7.80
2019-03-23T20:35:29.334Z,8.40
2019-03-23T20:37:57.737Z,7.92
2019-03-23T20:40:26.286Z,7.83
2019-03-23T20:42:54.788Z,8.03
2019-03-23T20:45:33.253Z,6.85
2019-03-23T20:48:05.312Z,7.15
2019-03-23T20:50:34.754Z,7.47
2019-03-23T20:53:03.893Z,7.05
2019-03-23T20:55:32.292Z,6.90
2019-03-23T20:58:03.428Z,7.72
2019-03-23T21:00:31.826Z,8.10
2019-03-23T21:03:11.083Z,7.37
2019-03-23T21:05:48.809Z,7.05
2019-03-23T21:08:17.205Z,7.15
2019-03-23T21:10:50.930Z,7.67
2019-03-23T21:13:28.319Z,6.70
2019-03-23T21:16:00.814Z,7.33
2019-03-23T21:21:00.603Z,6.42
2019-03-23T21:23:31.714Z,6.35
2019-03-23T21:26:00.112Z,5.37
2019-03-23T21:28:28.533Z,6.62
2019-03-23T21:31:00.744Z,7.92
2019-03-23T21:33:39.032Z,6.80
2019-03-23T21:36:06.506Z,7.28
2019-03-23T21:38:34.913Z,6.75
2019-03-23T21:41:06.056Z,8.23
2019-03-23T21:43:34.445Z,7.78
2019-03-23T21:46:02.941Z,7.63
2019-03-23T21:48:31.366Z,8.48
2019-03-23T21:50:59.806Z,6.53
2019-03-23T21:53:28.196Z,8.25
2019-03-23T21:55:56.593Z,7.37
2019-03-23T21:58:24.995Z,7.15
2019-03-23T22:00:57.693Z,6.78
2019-03-23T22:03:26.110Z,6.80
2019-03-23T22:05:54.499Z,6.85
2019-03-23T22:08:22.894Z,8.00
2019-03-23T22:10:51.285Z,7.90
2019-03-23T22:13:19.888Z,7.05
2019-03-23T22:15:52.388Z,7.80
2019-03-23T22:20:50.881Z,8.05
2019-03-23T22:23:19.275Z,7.17
2019-03-23T22:25:51.213Z,7.08
2019-03-23T22:28:23.300Z,7.80
2019-03-23T22:30:57.237Z,8.35
2019-03-23T22:33:27.777Z,7.60
2019-03-23T22:35:56.178Z,6.67
2019-03-23T22:38:24.599Z,9.30
2019-03-23T22:40:55.400Z,8.35
2019-03-23T22:43:23.895Z,7.65
2019-03-23T22:45:53.417Z,8.20
2019-03-23T22:48:21.812Z,8.00
2019-03-23T22:50:50.286Z,8.18
2019-03-23T22:53:19.625Z,8.35
2019-03-23T22:55:48.025Z,7.42
2019-03-23T22:58:16.473Z,7.67
2019-03-23T23:00:48.487Z,6.97
2019-03-23T23:03:17.752Z,7.25
2019-03-23T23:05:46.503Z,7.78
2019-03-23T23:08:17.211Z,7.42
2019-03-23T23:10:45.623Z,7.45
2019-03-23T23:13:17.512Z,7.50
2019-03-23T23:15:47.436Z,6.78
2019-03-23T23:18:16.886Z,7.25
2019-03-23T23:20:49.322Z,7.83
2019-03-23T23:25:46.433Z,6.37
2019-03-23T23:28:14.998Z,7.30
2019-03-23T23:30:43.405Z,7.70
2019-03-23T23:33:16.682Z,8.33
2019-03-23T23:35:44.362Z,7.20
2019-03-23T23:38:15.647Z,7.83
2019-03-23T23:40:44.071Z,8.40
2019-03-23T23:43:16.361Z,7.50
2019-03-23T23:45:44.775Z,7.87
2019-03-23T23:48:13.191Z,7.25
2019-03-23T23:50:41.587Z,7.20
2019-03-23T23:53:10.532Z,7.90
2019-03-23T23:55:38.958Z,7.53
2019-03-23T23:58:07.380Z,7.53
